Terminal Aerodrome Forecast
Issued by NWS Cleveland, OH

Home | Current Version | Previous Version | Graphics & Text | Print | Product List | Glossary On
Versions: 1 2 3 4 5 6 7 8 9 10 11 12 13 14 15 16 17 18 19 20 21 22 23 24 25 26
000
FTUS41 KCLE 261504 AAB
TAFCLE
TAF AMD
KCLE 261504Z 2615/2718 29010KT P6SM SCT015 OVC025
      TEMPO 2615/2619 BKN015
     FM261900 29008KT P6SM BKN035
     FM270100 13005KT P6SM OVC025
     FM270600 14008KT P6SM VCSH OVC015=

USA.gov is the U.S. government's official web portal to all federal, state and local government web resources and services.